createdAt,value
2022-09-07T04:00:55.959Z,7.30
2022-09-07T04:03:25.344Z,7.80
2022-09-07T04:05:54.221Z,8.60
2022-09-07T04:08:27.818Z,4.50
2022-09-07T04:10:57.864Z,5.30
2022-09-07T04:13:27.719Z,3.40
2022-09-07T04:15:57.272Z,5.90
2022-09-07T04:18:26.675Z,4.30
2022-09-07T04:20:59.563Z,4.60
2022-09-07T04:23:28.049Z,8.00
2022-09-07T04:25:56.852Z,4.30
2022-09-07T04:28:25.823Z,5.60
2022-09-07T04:30:55.040Z,5.10
2022-09-07T04:33:24.070Z,4.70
2022-09-07T04:35:53.156Z,2.80
2022-09-07T04:38:21.810Z,5.50
2022-09-07T04:40:50.747Z,5.50
2022-09-07T04:43:19.605Z,4.10
2022-09-07T04:45:48.727Z,3.80
2022-09-07T04:48:17.636Z,3.50
2022-09-07T04:50:46.689Z,2.80
2022-09-07T04:53:15.399Z,4.50
2022-09-07T04:55:44.615Z,3.50
2022-09-07T04:58:13.536Z,10.90
2022-09-07T05:00:44.509Z,12.30
2022-09-07T05:03:12.806Z,10.90
2022-09-07T05:05:41.764Z,6.50
2022-09-07T05:08:10.719Z,4.10
2022-09-07T05:10:40.251Z,3.90
2022-09-07T05:13:09.517Z,8.50
2022-09-07T05:15:38.117Z,3.50
2022-09-07T05:18:06.383Z,2.60
2022-09-07T05:20:35.444Z,4.80
2022-09-07T05:23:04.412Z,4.30
2022-09-07T05:25:33.697Z,4.10
2022-09-07T05:28:02.473Z,4.70
2022-09-07T05:33:21.126Z,18.60
2022-09-07T05:36:01.359Z,4.60
2022-09-07T05:38:30.900Z,4.90
2022-09-07T05:40:59.651Z,1.50
2022-09-07T05:43:28.493Z,3.20
2022-09-07T05:45:58.018Z,3.80
2022-09-07T05:48:26.299Z,3.70
2022-09-07T05:50:55.319Z,4.20
2022-09-07T05:53:24.279Z,3.40
2022-09-07T05:55:52.998Z,4.10
2022-09-07T05:58:21.832Z,4.90
2022-09-07T06:00:50.623Z,8.70
2022-09-07T06:03:19.928Z,2.60
2022-09-07T06:05:49.027Z,2.70
2022-09-07T06:08:18.117Z,4.50
2022-09-07T06:10:46.970Z,3.20
2022-09-07T06:13:15.654Z,3.90
2022-09-07T06:15:44.734Z,3.10
2022-09-07T06:18:13.807Z,2.90
2022-09-07T06:20:42.369Z,4.40
2022-09-07T06:23:11.288Z,6.00
2022-09-07T06:25:49.311Z,2.30
2022-09-07T06:28:18.870Z,5.50
2022-09-07T06:30:47.618Z,9.00
2022-09-07T06:33:19.589Z,6.20
2022-09-07T06:36:02.621Z,4.30
2022-09-07T06:38:33.929Z,3.70
2022-09-07T06:43:55.814Z,2.20
2022-09-07T06:49:15.868Z,4.90
2022-09-07T06:51:44.935Z,3.40
2022-09-07T06:57:09.522Z,3.30
2022-09-07T06:59:41.600Z,2.20
2022-09-07T07:02:12.063Z,2.30
2022-09-07T07:04:41.536Z,3.20
2022-09-07T07:07:14.520Z,3.90
2022-09-07T07:09:43.817Z,2.40
2022-09-07T07:12:12.806Z,2.70
2022-09-07T07:14:45.005Z,2.40
2022-09-07T07:17:14.526Z,1.50
2022-09-07T07:19:43.536Z,2.80
2022-09-07T07:22:36.096Z,4.10
2022-09-07T07:25:01.950Z,3.40
2022-09-07T07:27:31.922Z,2.60
2022-09-07T07:30:00.911Z,3.00
2022-09-07T07:32:29.830Z,2.10
2022-09-07T07:34:59.407Z,4.00
2022-09-07T07:37:28.439Z,1.40
2022-09-07T07:42:46.146Z,2.60
2022-09-07T07:48:03.674Z,2.40
2022-09-07T07:50:33.250Z,2.90
2022-09-07T07:55:53.162Z,4.70
2022-09-07T07:58:21.713Z,2.00
2022-09-07T08:00:54.664Z,3.50
2022-09-07T08:03:25.537Z,5.90
2022-09-07T08:05:55.423Z,1.40
2022-09-07T08:08:24.736Z,8.20
2022-09-07T08:10:53.261Z,2.50
2022-09-07T08:13:21.689Z,3.20
2022-09-07T08:15:49.853Z,2.20
2022-09-07T08:18:18.144Z,2.30
2022-09-07T08:20:47.063Z,2.90
2022-09-07T08:23:16.122Z,4.40
2022-09-07T08:25:55.192Z,6.70
2022-09-07T08:28:24.096Z,2.50
2022-09-07T08:30:52.464Z,4.50
2022-09-07T08:33:21.442Z,5.20
2022-09-07T08:36:04.039Z,3.20
2022-09-07T08:38:34.528Z,2.00
2022-09-07T08:41:22.677Z,5.80
2022-09-07T08:43:59.127Z,7.10
2022-09-07T08:46:41.162Z,4.90
2022-09-07T08:49:36.130Z,4.00
2022-09-07T08:52:11.129Z,2.20
2022-09-07T08:54:45.063Z,3.30
2022-09-07T08:57:21.515Z,4.50
2022-09-07T09:00:15.231Z,4.40
2022-09-07T09:02:45.616Z,2.30
2022-09-07T09:05:40.941Z,2.00
2022-09-07T09:08:27.276Z,1.50
2022-09-07T09:11:04.315Z,3.70
2022-09-07T09:13:52.388Z,3.90
2022-09-07T09:16:33.396Z,1.80
2022-09-07T09:19:36.088Z,3.80
2022-09-07T09:22:22.047Z,1.80
2022-09-07T09:25:05.860Z,2.20
2022-09-07T09:30:12.097Z,5.40
2022-09-07T09:32:43.461Z,1.70
2022-09-07T09:35:24.193Z,1.10
2022-09-07T09:37:53.122Z,1.00
2022-09-07T09:40:32.461Z,0.90
2022-09-07T09:43:08.433Z,0.70
2022-09-07T09:48:36.003Z,2.70
2022-09-07T09:54:34.283Z,2.00
2022-09-07T09:57:04.272Z,2.20
2022-09-07T10:05:40.250Z,2.20
2022-09-07T10:08:29.303Z,1.50
2022-09-07T10:11:14.500Z,0.90
2022-09-07T10:13:56.671Z,3.30
2022-09-07T10:16:42.294Z,3.20
2022-09-07T10:19:38.306Z,1.50
2022-09-07T10:22:36.248Z,1.10
2022-09-07T10:25:29.887Z,2.20
2022-09-07T10:28:17.492Z,2.30
2022-09-07T10:31:04.154Z,1.30
2022-09-07T10:33:32.578Z,3.00
2022-09-07T10:36:35.943Z,1.40
2022-09-07T10:39:14.905Z,0.90
2022-09-07T10:42:02.291Z,2.20
2022-09-07T10:44:45.754Z,1.60
2022-09-07T10:50:29.454Z,2.50
2022-09-07T10:53:40.769Z,1.10
2022-09-07T10:56:15.463Z,2.60
2022-09-07T10:59:04.214Z,2.40
2022-09-07T11:01:55.871Z,3.20
2022-09-07T11:04:40.822Z,1.90
2022-09-07T11:07:28.710Z,3.80
2022-09-07T11:10:04.347Z,2.60
2022-09-07T11:12:37.046Z,4.30
2022-09-07T11:15:18.271Z,2.30
2022-09-07T11:17:53.403Z,3.40
2022-09-07T11:20:28.740Z,2.50
2022-09-07T11:23:03.341Z,2.80
2022-09-07T11:25:47.611Z,1.30
2022-09-07T11:28:24.490Z,2.40
2022-09-07T11:31:02.598Z,2.40
2022-09-07T11:34:23.836Z,3.10
2022-09-07T11:37:01.885Z,3.30
2022-09-07T11:40:01.760Z,2.90
2022-09-07T11:42:53.091Z,9.90
2022-09-07T11:45:29.374Z,4.40
2022-09-07T11:48:19.591Z,2.10
2022-09-07T11:50:53.563Z,16.90
2022-09-07T11:56:03.931Z,19.10
2022-09-07T11:58:53.784Z,28.30
2022-09-07T12:02:04.596Z,47.80
2022-09-07T12:04:42.962Z,72.70
2022-09-07T12:07:36.262Z,89.10
2022-09-07T12:10:19.485Z,24.80
2022-09-07T12:12:51.311Z,3.90
2022-09-07T12:15:41.622Z,4.40
2022-09-07T12:18:37.093Z,2.90
2022-09-07T12:21:25.942Z,5.00
2022-09-07T12:23:56.981Z,1.20
2022-09-07T12:26:35.352Z,2.20
2022-09-07T12:29:17.899Z,1.90
2022-09-07T12:32:52.337Z,11.50
2022-09-07T12:34:52.476Z,3.50
2022-09-07T12:37:27.459Z,5.10
2022-09-07T12:40:30.649Z,5.90
2022-09-07T12:43:14.585Z,4.40
2022-09-07T12:45:42.632Z,5.10
2022-09-07T12:48:16.966Z,9.00
2022-09-07T12:50:57.612Z,13.70
2022-09-07T12:53:57.414Z,4.80
2022-09-07T12:57:28.988Z,41.40
2022-09-07T12:59:46.619Z,4.90
2022-09-07T13:02:52.815Z,4.50
2022-09-07T13:06:06.286Z,4.90
2022-09-07T13:09:05.341Z,15.80
2022-09-07T13:11:40.123Z,31.10
2022-09-07T13:14:15.888Z,4.30
2022-09-07T13:19:51.965Z,10.60
2022-09-07T13:22:36.124Z,27.40
2022-09-07T13:25:20.843Z,23.80
2022-09-07T13:27:58.792Z,7.40
2022-09-07T13:30:57.440Z,7.70
2022-09-07T13:33:27.409Z,3.00
2022-09-07T13:36:02.654Z,2.10
2022-09-07T13:38:35.554Z,3.00
2022-09-07T13:41:16.305Z,2.90
2022-09-07T13:43:57.217Z,2.60
2022-09-07T13:46:47.986Z,1.80
2022-09-07T13:49:56.643Z,1.50
2022-09-07T13:52:46.972Z,2.00
2022-09-07T13:55:46.306Z,2.40
2022-09-07T13:58:33.908Z,1.80
2022-09-07T14:01:15.298Z,2.10
2022-09-07T14:04:08.163Z,4.00
2022-09-07T14:06:39.013Z,1.60
2022-09-07T14:09:27.908Z,3.40
2022-09-07T14:11:56.801Z,2.20
2022-09-07T14:14:29.960Z,2.20
2022-09-07T14:17:04.698Z,2.60
2022-09-07T14:19:40.456Z,4.80
2022-09-07T14:22:14.992Z,4.40
2022-09-07T14:25:06.253Z,1.90
2022-09-07T14:27:37.707Z,1.90
2022-09-07T14:30:26.411Z,4.20
2022-09-07T14:33:00.857Z,2.00
2022-09-07T14:35:34.816Z,1.80
2022-09-07T14:41:20.786Z,2.60
2022-09-07T14:43:54.515Z,5.60
2022-09-07T14:46:37.962Z,2.70
2022-09-07T14:49:20.451Z,3.50
2022-09-07T14:51:51.015Z,1.40
2022-09-07T14:54:32.623Z,1.90
2022-09-07T14:57:07.014Z,1.80
2022-09-07T14:59:44.001Z,1.70
2022-09-07T15:02:18.313Z,5.10
2022-09-07T15:04:48.228Z,2.90
2022-09-07T15:07:29.947Z,2.60
2022-09-07T15:10:26.580Z,9.60
2022-09-07T15:13:01.773Z,8.20
2022-09-07T15:15:32.458Z,9.00
2022-09-07T15:18:09.008Z,7.60
2022-09-07T15:20:41.966Z,6.10
2022-09-07T15:23:14.528Z,3.60
2022-09-07T15:25:50.482Z,4.70
2022-09-07T15:34:16.002Z,1.50
2022-09-07T15:36:50.950Z,3.40
2022-09-07T15:39:25.769Z,2.70
2022-09-07T15:41:54.890Z,2.50
2022-09-07T15:44:26.497Z,1.00
2022-09-07T15:49:51.345Z,5.80
2022-09-07T15:52:21.004Z,2.30
2022-09-07T15:54:51.612Z,2.00
2022-09-07T16:00:11.195Z,3.90
2022-09-07T16:05:35.783Z,8.90
2022-09-07T16:10:56.451Z,10.30
2022-09-07T16:13:34.249Z,16.80
2022-09-07T16:16:05.912Z,20.50
2022-09-07T16:18:35.821Z,26.50
2022-09-07T16:21:15.642Z,42.80
2022-09-07T16:23:50.781Z,44.40
2022-09-07T16:26:22.125Z,54.30
2022-09-07T16:28:53.194Z,65.00
2022-09-07T16:31:27.560Z,74.80
2022-09-07T16:33:56.731Z,61.80
2022-09-07T16:36:25.862Z,53.90
2022-09-07T16:38:59.975Z,45.70
2022-09-07T16:41:35.162Z,34.20
2022-09-07T16:44:04.152Z,36.40
2022-09-07T16:46:35.849Z,25.20
2022-09-07T16:49:07.696Z,16.90
2022-09-07T16:51:36.280Z,11.40
2022-09-07T16:54:05.684Z,12.40
2022-09-07T16:56:38.778Z,15.00
2022-09-07T17:01:39.198Z,9.20
2022-09-07T17:04:11.615Z,8.80
2022-09-07T17:06:41.255Z,10.50
2022-09-07T17:09:13.332Z,10.30
2022-09-07T17:11:42.843Z,10.00
2022-09-07T17:14:13.661Z,7.10
2022-09-07T17:16:43.572Z,5.30
2022-09-07T17:19:30.287Z,6.00
2022-09-07T17:22:01.679Z,8.00
2022-09-07T17:24:32.178Z,14.10
2022-09-07T17:27:01.347Z,22.60
2022-09-07T17:29:38.477Z,23.40
2022-09-07T17:32:24.523Z,17.10
2022-09-07T17:34:55.773Z,18.50
2022-09-07T17:37:27.476Z,11.50
2022-09-07T17:39:56.899Z,27.80
2022-09-07T17:43:38.758Z,59.70
2022-09-07T17:45:17.489Z,34.30
2022-09-07T17:47:45.877Z,23.90
2022-09-07T17:50:14.953Z,13.50
2022-09-07T17:52:45.992Z,15.70
2022-09-07T17:55:15.305Z,21.10
2022-09-07T17:57:43.606Z,15.10
2022-09-07T18:00:13.059Z,13.30
2022-09-07T18:02:42.913Z,11.60
2022-09-07T18:05:12.878Z,15.00
2022-09-07T18:07:41.488Z,13.60
2022-09-07T18:10:10.221Z,12.00
2022-09-07T18:12:38.868Z,9.20
2022-09-07T18:15:08.120Z,14.90
2022-09-07T18:17:36.338Z,14.40
2022-09-07T18:20:04.956Z,10.50
2022-09-07T18:22:34.590Z,12.30
2022-09-07T18:25:03.508Z,10.00
2022-09-07T18:27:31.901Z,13.00
2022-09-07T18:30:01.398Z,16.10
2022-09-07T18:32:31.967Z,10.60
2022-09-07T18:35:00.913Z,14.70
2022-09-07T18:37:31.494Z,14.30
2022-09-07T18:40:00.206Z,11.30
2022-09-07T18:42:30.139Z,11.90
2022-09-07T18:47:47.695Z,15.30
2022-09-07T18:50:17.063Z,13.00
2022-09-07T18:52:53.249Z,9.00
2022-09-07T18:55:23.943Z,12.80
2022-09-07T18:57:52.118Z,13.90
2022-09-07T19:00:20.428Z,10.50
2022-09-07T19:02:52.261Z,10.20
2022-09-07T19:08:10.691Z,4.90
2022-09-07T19:10:39.433Z,9.00
2022-09-07T19:13:08.142Z,5.20
2022-09-07T19:15:37.648Z,4.50
2022-09-07T19:18:08.083Z,5.50
2022-09-07T19:20:40.632Z,4.40
2022-09-07T19:23:09.555Z,4.80
2022-09-07T19:25:41.163Z,5.50
2022-09-07T19:28:09.558Z,4.70
2022-09-07T19:30:38.103Z,5.20
2022-09-07T19:33:10.343Z,5.50
2022-09-07T19:35:39.330Z,8.60
2022-09-07T19:38:08.361Z,11.70
2022-09-07T19:40:36.479Z,6.60
2022-09-07T19:43:04.858Z,4.10
2022-09-07T19:45:37.047Z,7.00
2022-09-07T19:48:05.725Z,5.20
2022-09-07T19:50:33.961Z,4.80
2022-09-07T19:53:02.747Z,4.40
2022-09-07T19:55:31.669Z,8.50
2022-09-07T19:58:00.536Z,7.80
2022-09-07T20:00:29.910Z,6.40
2022-09-07T20:02:58.712Z,6.80
2022-09-07T20:05:32.334Z,6.80
2022-09-07T20:08:01.898Z,4.90
2022-09-07T20:10:32.528Z,4.20
2022-09-07T20:13:00.919Z,5.40
2022-09-07T20:15:30.202Z,5.60
2022-09-07T20:17:59.633Z,5.90
2022-09-07T20:20:28.204Z,4.00
2022-09-07T20:22:56.373Z,4.10
2022-09-07T20:25:25.480Z,2.90
2022-09-07T20:27:53.795Z,4.20
2022-09-07T20:30:24.536Z,4.50
2022-09-07T20:32:53.064Z,5.80
2022-09-07T20:35:21.804Z,4.70
2022-09-07T20:37:51.288Z,4.70
2022-09-07T20:40:20.092Z,4.90
2022-09-07T20:42:48.521Z,9.20
2022-09-07T20:45:16.818Z,5.70
2022-09-07T20:47:45.957Z,5.60
2022-09-07T20:50:14.755Z,6.20
2022-09-07T20:52:43.365Z,4.80
2022-09-07T20:55:11.881Z,5.50
2022-09-07T20:57:40.448Z,6.80
2022-09-07T21:00:09.410Z,4.50
2022-09-07T21:02:37.987Z,7.50
2022-09-07T21:05:08.202Z,5.90
2022-09-07T21:07:39.882Z,6.10
2022-09-07T21:10:10.073Z,4.90
2022-09-07T21:12:39.102Z,7.20
2022-09-07T21:15:09.875Z,7.20
2022-09-07T21:17:39.019Z,4.50
2022-09-07T21:20:08.345Z,7.80
2022-09-07T21:22:38.593Z,6.10
2022-09-07T21:25:07.942Z,6.70
2022-09-07T21:27:39.010Z,4.30
2022-09-07T21:30:08.105Z,6.00
2022-09-07T21:32:36.494Z,8.60
2022-09-07T21:35:05.591Z,6.40
2022-09-07T21:37:34.691Z,5.80
2022-09-07T21:40:06.550Z,7.90
2022-09-07T21:42:35.523Z,7.40
2022-09-07T21:45:07.761Z,5.80
2022-09-07T21:47:36.816Z,9.90
2022-09-07T21:50:06.374Z,7.00
2022-09-07T21:52:35.463Z,8.90
2022-09-07T21:55:04.669Z,7.00
2022-09-07T21:57:33.847Z,6.70
2022-09-07T22:00:03.239Z,6.50
2022-09-07T22:02:41.149Z,6.20
2022-09-07T22:05:10.524Z,6.30
2022-09-07T22:07:39.587Z,6.60
2022-09-07T22:10:09.894Z,7.80
2022-09-07T22:12:38.878Z,6.30
2022-09-07T22:15:07.861Z,6.60
2022-09-07T22:17:36.638Z,6.30
2022-09-07T22:20:06.136Z,5.30
2022-09-07T22:22:34.715Z,5.90
2022-09-07T22:25:03.376Z,5.80
2022-09-07T22:27:32.408Z,8.70
2022-09-07T22:30:01.107Z,6.50
2022-09-07T22:32:30.074Z,8.30
2022-09-07T22:34:58.801Z,8.00
2022-09-07T22:37:27.590Z,6.60
2022-09-07T22:39:56.556Z,4.40
2022-09-07T22:42:25.470Z,7.00
2022-09-07T22:44:54.317Z,5.30
2022-09-07T22:47:23.329Z,5.90
2022-09-07T22:49:52.105Z,7.50
2022-09-07T22:52:20.975Z,6.00
2022-09-07T22:54:49.867Z,6.40
2022-09-07T22:57:19.385Z,4.80
2022-09-07T22:59:48.228Z,5.40
